Time;durP1;ratioP1;P1;durP2;ratioP2;P2;SDS_P1;SDS_P2;PMS_P1;PMS_P2;Temp;Humidity;BMP_temperature;BMP_pressure;BME280_temperature;BME280_humidity;BME280_pressure;Samples;Min_cycle;Max_cycle;Signal;HPM_P1;HPM_P2
2022/09/10 00:01:30;;;;;;;3.40;2.53;;;;;;;10.33;100.00;100528.63;5032535;28;20064;-49
2022/09/10 00:03:57;;;;;;;2.60;2.40;;;;;;;10.34;100.00;100536.38;5032650;28;20037;-52
2022/09/10 00:06:26;;;;;;;1.77;1.30;;;;;;;10.33;100.00;100542.69;5030077;28;21380;-48
2022/09/10 00:08:59;;;;;;;2.47;1.85;;;;;;;10.29;100.00;100551.19;5033226;28;20029;-48
2022/09/10 00:11:26;;;;;;;2.13;1.95;;;;;;;10.24;100.00;100554.38;5031840;28;20656;-50
2022/09/10 00:13:52;;;;;;;4.80;1.48;;;;;;;10.23;100.00;100547.44;5034524;28;20038;-53
2022/09/10 00:16:18;;;;;;;1.60;1.50;;;;;;;10.21;100.00;100554.75;5034913;28;20030;-47
2022/09/10 00:18:45;;;;;;;3.88;3.17;;;;;;;10.22;100.00;100551.94;5038892;28;20033;-49
2022/09/10 00:21:13;;;;;;;2.20;2.00;;;;;;;10.20;100.00;100553.94;5032612;28;20454;-50
2022/09/10 00:23:39;;;;;;;4.15;2.10;;;;;;;10.17;100.00;100554.31;5037710;28;20494;-50
2022/09/10 00:26:21;;;;;;;2.63;1.98;;;;;;;10.12;100.00;100562.00;5033843;28;20078;-49
2022/09/10 00:28:51;;;;;;;1.52;1.42;;;;;;;10.11;100.00;100549.75;5035502;28;20017;-47
2022/09/10 00:31:18;;;;;;;2.35;2.13;;;;;;;10.12;100.00;100556.72;5034233;28;21574;-47
2022/09/10 00:33:43;;;;;;;2.13;1.92;;;;;;;10.05;100.00;100553.16;5037779;28;20108;-50
2022/09/10 00:36:38;;;;;;;2.38;2.08;;;;;;;9.99;100.00;100551.22;5036293;28;20515;-47
2022/09/10 00:39:06;;;;;;;2.78;1.80;;;;;;;10.04;100.00;100560.28;5034061;28;20037;-47
2022/09/10 00:41:33;;;;;;;4.82;2.17;;;;;;;10.04;100.00;100567.38;5033865;28;20360;-52
2022/09/10 00:44:01;;;;;;;3.90;2.25;;;;;;;10.02;100.00;100559.63;5036094;28;20089;-50
2022/09/10 00:46:42;;;;;;;2.38;1.52;;;;;;;9.99;100.00;100561.81;5035230;28;20067;-51
2022/09/10 00:49:20;;;;;;;2.77;1.97;;;;;;;9.92;100.00;100566.25;5038293;28;20029;-52
2022/09/10 00:51:47;;;;;;;1.95;1.80;;;;;;;9.91;100.00;100569.88;5040786;28;20347;-49
2022/09/10 00:54:16;;;;;;;2.05;1.95;;;;;;;9.92;100.00;100569.69;5035606;28;20043;-49
2022/09/10 00:56:42;;;;;;;3.00;1.73;;;;;;;9.92;100.00;100571.53;5039284;28;20029;-51
2022/09/10 00:59:09;;;;;;;2.88;2.67;;;;;;;9.95;100.00;100568.50;5040066;28;20029;-51
2022/09/10 01:01:37;;;;;;;2.05;1.95;;;;;;;9.90;100.00;100574.34;5036829;28;20060;-52
2022/09/10 01:04:05;;;;;;;6.38;2.50;;;;;;;9.92;100.00;100574.19;5040912;28;20088;-50
2022/09/10 01:06:31;;;;;;;2.20;2.00;;;;;;;9.87;100.00;100568.63;5037655;28;20033;-48
2022/09/10 01:08:57;;;;;;;3.55;2.55;;;;;;;9.83;100.00;100569.00;5035113;28;20106;-50
2022/09/10 01:11:38;;;;;;;2.60;2.40;;;;;;;9.83;100.00;100566.34;5034719;28;20033;-51
2022/09/10 01:14:40;;;;;;;3.63;2.65;;;;;;;9.86;100.00;100569.59;5031666;28;20045;-54
2022/09/10 01:17:20;;;;;;;3.08;2.78;;;;;;;9.82;100.00;100572.63;5038909;28;20053;-52
2022/09/10 01:19:51;;;;;;;3.15;2.70;;;;;;;9.83;100.00;100584.03;5031713;28;20033;-51
2022/09/10 01:22:29;;;;;;;3.83;2.83;;;;;;;9.82;100.00;100577.91;5032504;28;20039;-51
2022/09/10 01:25:35;;;;;;;4.00;3.45;;;;;;;9.78;100.00;100589.06;5035372;28;20083;-50
2022/09/10 01:28:20;;;;;;;2.97;2.40;;;;;;;9.70;100.00;100582.03;5032788;28;20556;-49
2022/09/10 01:30:54;;;;;;;3.22;2.58;;;;;;;9.67;100.00;100577.09;5034071;28;20382;-51
2022/09/10 01:33:33;;;;;;;3.45;3.10;;;;;;;9.69;100.00;100580.41;5036335;28;20025;-49
2022/09/10 01:36:19;;;;;;;5.30;2.75;;;;;;;9.75;100.00;100586.78;5030457;28;20044;-50
2022/09/10 01:38:45;;;;;;;1.98;1.85;;;;;;;9.70;100.00;100589.97;5028430;28;20028;-47
2022/09/10 01:41:12;;;;;;;2.28;2.10;;;;;;;9.66;100.00;100585.25;5034334;28;20022;-48
2022/09/10 01:43:37;;;;;;;3.45;3.15;;;;;;;9.63;100.00;100593.53;5035280;28;20462;-49
2022/09/10 01:46:40;;;;;;;3.45;3.15;;;;;;;9.60;100.00;100598.19;5035691;28;20025;-49
2022/09/10 01:49:25;;;;;;;2.47;2.13;;;;;;;9.68;100.00;100597.28;5040348;28;20037;-52
2022/09/10 01:52:11;;;;;;;3.83;2.72;;;;;;;9.67;100.00;100600.13;5024724;28;20037;-53
2022/09/10 01:55:10;;;;;;;3.40;3.10;;;;;;;9.61;100.00;100610.41;5031905;28;20402;-51
2022/09/10 01:57:43;;;;;;;3.97;2.58;;;;;;;9.61;100.00;100614.91;5039316;28;20585;-52
2022/09/10 02:00:15;;;;;;;4.47;2.67;;;;;;;9.58;100.00;100609.97;5031967;28;20049;-52
2022/09/10 02:02:56;;;;;;;2.90;2.58;;;;;;;9.55;100.00;100611.16;5027518;28;20029;-54
2022/09/10 02:05:25;;;;;;;2.90;2.00;;;;;;;9.51;100.00;100611.69;5038207;28;20029;-50
2022/09/10 02:07:56;;;;;;;3.90;1.90;;;;;;;9.45;100.00;100617.69;5036355;28;20425;-48
2022/09/10 02:10:22;;;;;;;1.65;1.55;;;;;;;9.40;100.00;100607.66;5032275;28;20029;-51
2022/09/10 02:12:47;;;;;;;2.80;2.60;;;;;;;9.35;100.00;100599.44;5041371;28;20049;-49
2022/09/10 02:15:15;;;;;;;2.22;1.92;;;;;;;9.34;100.00;100598.59;5032515;28;20030;-51
2022/09/10 02:17:40;;;;;;;2.38;2.15;;;;;;;9.40;100.00;100610.31;5034687;28;20040;-50
2022/09/10 02:20:12;;;;;;;1.90;1.80;;;;;;;9.53;100.00;100613.16;5030271;28;20025;-53
2022/09/10 02:22:41;;;;;;;3.60;2.50;;;;;;;9.65;100.00;100612.72;5033580;28;20056;-51
2022/09/10 02:25:08;;;;;;;3.13;2.55;;;;;;;9.73;100.00;100608.16;5043294;28;20029;-53
2022/09/10 02:27:34;;;;;;;4.20;3.10;;;;;;;9.80;100.00;100606.41;5030628;28;20043;-50
2022/09/10 02:29:59;;;;;;;3.50;3.22;;;;;;;9.85;100.00;100607.69;5036310;28;20112;-50
2022/09/10 02:32:25;;;;;;;2.30;2.20;;;;;;;9.89;100.00;100606.34;5043362;28;20040;-50
2022/09/10 02:34:50;;;;;;;3.40;3.10;;;;;;;9.99;100.00;100614.78;5035975;28;20132;-52
2022/09/10 02:37:16;;;;;;;4.07;3.65;;;;;;;10.05;100.00;100608.78;5039231;28;20789;-52
2022/09/10 02:39:43;;;;;;;4.03;2.63;;;;;;;10.15;100.00;100614.63;5036340;28;20401;-50
2022/09/10 02:42:09;;;;;;;3.92;2.58;;;;;;;10.29;100.00;100620.09;5034230;28;20052;-49
2022/09/10 02:44:34;;;;;;;3.53;3.22;;;;;;;10.31;100.00;100610.16;5040297;28;20025;-53
2022/09/10 02:46:59;;;;;;;3.50;2.45;;;;;;;10.31;100.00;100615.44;5030379;28;20109;-49
2022/09/10 02:49:25;;;;;;;3.83;2.60;;;;;;;10.35;100.00;100624.66;5039513;28;20028;-52
2022/09/10 02:51:50;;;;;;;3.20;2.50;;;;;;;10.41;100.00;100621.28;5028110;28;20041;-51
2022/09/10 02:54:16;;;;;;;2.95;2.60;;;;;;;10.41;100.00;100629.22;5031468;28;20395;-51
2022/09/10 02:56:42;;;;;;;7.65;2.85;;;;;;;10.37;100.00;100620.81;5038304;28;20049;-50
2022/09/10 02:59:07;;;;;;;4.47;3.38;;;;;;;10.33;100.00;100624.84;5033888;28;20394;-53
2022/09/10 03:01:33;;;;;;;3.45;2.38;;;;;;;10.32;100.00;100627.69;5034492;28;20639;-49
2022/09/10 03:03:59;;;;;;;3.85;2.75;;;;;;;10.28;100.00;100632.53;5032579;28;20445;-50
2022/09/10 03:06:25;;;;;;;3.72;3.38;;;;;;;10.24;100.00;100636.53;5035083;28;20029;-48
2022/09/10 03:08:54;;;;;;;3.10;2.80;;;;;;;10.22;100.00;100635.88;5032884;28;20132;-48
2022/09/10 03:11:22;;;;;;;5.68;2.33;;;;;;;10.34;100.00;100638.94;5039021;28;20038;-50
2022/09/10 03:13:49;;;;;;;3.50;2.60;;;;;;;10.44;100.00;100642.91;5035616;28;20564;-49
2022/09/10 03:16:15;;;;;;;6.32;3.53;;;;;;;10.39;100.00;100631.25;5038225;28;20060;-52
2022/09/10 03:18:42;;;;;;;4.03;2.53;;;;;;;10.34;100.00;100637.09;5041056;28;20029;-49
2022/09/10 03:21:10;;;;;;;4.22;3.10;;;;;;;10.42;100.00;100644.94;5034771;28;20083;-49
2022/09/10 03:23:36;;;;;;;5.50;3.67;;;;;;;10.51;100.00;100644.81;5030566;28;20029;-52
2022/09/10 03:26:03;;;;;;;6.25;3.22;;;;;;;10.57;100.00;100647.56;5032499;28;20096;-48
2022/09/10 03:28:28;;;;;;;3.22;2.83;;;;;;;10.72;100.00;100652.81;5038231;28;20033;-49
2022/09/10 03:30:54;;;;;;;3.45;3.10;;;;;;;10.75;100.00;100656.94;5026877;28;20037;-50
2022/09/10 03:33:20;;;;;;;2.63;2.42;;;;;;;10.57;100.00;100655.50;5032120;28;20022;-47
2022/09/10 03:35:51;;;;;;;6.30;3.33;;;;;;;10.51;100.00;100650.97;5031987;28;20116;-48
2022/09/10 03:38:17;;;;;;;2.38;1.95;;;;;;;10.50;100.00;100661.75;5037941;28;20024;-47
2022/09/10 03:40:42;;;;;;;6.55;2.97;;;;;;;10.45;100.00;100659.66;5032737;28;20022;-50
2022/09/10 03:43:08;;;;;;;5.40;3.20;;;;;;;10.45;100.00;100659.66;5029216;28;20091;-49
2022/09/10 03:45:33;;;;;;;4.97;2.83;;;;;;;10.46;100.00;100663.97;5037403;28;20407;-48
2022/09/10 03:47:58;;;;;;;4.25;2.17;;;;;;;10.50;100.00;100659.09;5040293;28;20041;-53
2022/09/10 03:50:25;;;;;;;3.10;2.80;;;;;;;10.42;100.00;100665.31;5036044;28;20036;-49
2022/09/10 03:52:50;;;;;;;4.93;2.90;;;;;;;10.46;100.00;100666.59;5030465;28;20061;-53
2022/09/10 03:55:16;;;;;;;3.97;2.40;;;;;;;10.52;100.00;100662.38;5030162;28;20084;-54
2022/09/10 03:57:42;;;;;;;4.20;2.20;;;;;;;10.61;100.00;100670.06;5037075;28;20037;-47
2022/09/10 04:00:10;;;;;;;6.05;2.38;;;;;;;10.69;100.00;100672.59;5035468;28;20128;-52
2022/09/10 04:02:36;;;;;;;4.25;2.97;;;;;;;10.84;100.00;100671.72;5034406;28;20029;-50
2022/09/10 04:05:02;;;;;;;4.38;3.22;;;;;;;10.93;100.00;100678.53;5033643;28;20037;-50
2022/09/10 04:07:29;;;;;;;4.35;3.00;;;;;;;11.02;100.00;100677.44;5034195;28;20083;-51
2022/09/10 04:09:54;;;;;;;5.82;3.03;;;;;;;11.04;100.00;100682.53;5031013;28;20128;-49
2022/09/10 04:12:20;;;;;;;6.35;2.97;;;;;;;11.07;100.00;100671.53;5029183;28;22140;-51
2022/09/10 04:14:45;;;;;;;4.47;3.20;;;;;;;11.07;100.00;100685.63;5030658;28;20564;-50
2022/09/10 04:17:11;;;;;;;3.78;3.45;;;;;;;11.08;100.00;100683.81;5032480;28;20033;-54
2022/09/10 04:19:40;;;;;;;2.60;2.40;;;;;;;11.09;100.00;100683.59;5030225;28;20040;-48
2022/09/10 04:22:06;;;;;;;6.00;2.38;;;;;;;11.08;100.00;100681.97;5033984;28;20033;-52
2022/09/10 04:24:31;;;;;;;3.92;3.53;;;;;;;11.04;100.00;100683.34;5037976;28;20029;-49
2022/09/10 04:26:57;;;;;;;8.40;4.82;;;;;;;10.97;100.00;100681.63;5034919;28;20548;-49
2022/09/10 04:29:23;;;;;;;3.10;2.85;;;;;;;10.89;100.00;100685.22;5035484;28;20100;-50
2022/09/10 04:31:49;;;;;;;4.60;2.17;;;;;;;10.88;100.00;100684.41;5041455;28;20472;-51
2022/09/10 04:34:15;;;;;;;2.78;2.35;;;;;;;10.95;100.00;100686.34;5032419;28;20433;-50
2022/09/10 04:36:40;;;;;;;4.50;2.85;;;;;;;10.97;100.00;100684.28;5038432;28;20111;-50
2022/09/10 04:39:06;;;;;;;2.78;2.28;;;;;;;11.07;100.00;100676.84;5029383;28;20053;-49
2022/09/10 04:41:31;;;;;;;4.43;3.35;;;;;;;11.09;100.00;100678.28;5035866;28;20084;-54
2022/09/10 04:43:57;;;;;;;3.22;2.95;;;;;;;11.11;100.00;100678.13;5035927;28;20116;-52
2022/09/10 04:46:22;;;;;;;2.85;2.58;;;;;;;11.14;100.00;100678.53;5033371;28;20041;-50
2022/09/10 04:48:48;;;;;;;2.75;2.50;;;;;;;11.22;100.00;100682.09;5034438;28;20040;-50
2022/09/10 04:51:13;;;;;;;4.20;2.17;;;;;;;11.28;100.00;100683.97;5039327;28;20022;-52
2022/09/10 04:53:40;;;;;;;2.67;2.45;;;;;;;11.31;100.00;100691.59;5036605;28;20037;-51
2022/09/10 04:56:06;;;;;;;3.78;2.67;;;;;;;11.32;100.00;100685.25;5039659;28;20037;-50
2022/09/10 04:58:32;;;;;;;2.58;2.38;;;;;;;11.38;100.00;100695.09;5038393;28;20115;-50
2022/09/10 05:00:57;;;;;;;2.88;2.20;;;;;;;11.38;100.00;100700.41;5039875;28;20120;-49
2022/09/10 05:03:23;;;;;;;4.13;2.92;;;;;;;11.40;100.00;100710.84;5036629;28;20112;-50
2022/09/10 05:05:49;;;;;;;3.80;1.98;;;;;;;11.38;100.00;100711.03;5037274;28;20087;-50
2022/09/10 05:08:15;;;;;;;2.72;2.20;;;;;;;11.35;100.00;100709.56;5031229;28;20484;-50
2022/09/10 05:10:41;;;;;;;3.78;2.65;;;;;;;11.30;100.00;100716.47;5036887;28;20462;-48
2022/09/10 05:13:07;;;;;;;3.42;2.00;;;;;;;11.23;100.00;100708.47;5041738;28;20122;-50
2022/09/10 05:15:34;;;;;;;5.00;2.22;;;;;;;11.11;100.00;100705.47;5034292;28;20359;-52
2022/09/10 05:18:00;;;;;;;3.35;2.38;;;;;;;10.99;100.00;100703.50;5035600;28;20044;-51
2022/09/10 05:20:26;;;;;;;5.18;2.20;;;;;;;10.90;100.00;100702.81;5038445;28;20482;-52
2022/09/10 05:22:55;;;;;;;2.05;1.60;;;;;;;10.86;100.00;100717.44;5035340;28;20024;-50
2022/09/10 05:25:20;;;;;;;7.03;2.15;;;;;;;10.81;100.00;100719.84;5037728;28;20025;-50
2022/09/10 05:27:46;;;;;;;4.20;1.88;;;;;;;10.69;100.00;100708.91;5036681;28;20493;-52
2022/09/10 05:30:11;;;;;;;2.75;2.33;;;;;;;10.62;100.00;100713.28;5038062;28;20072;-53
2022/09/10 05:32:38;;;;;;;2.95;2.10;;;;;;;10.63;100.00;100713.09;5036465;28;20031;-52
2022/09/10 05:35:05;;;;;;;3.72;2.05;;;;;;;10.73;100.00;100720.75;5038509;28;20033;-48
2022/09/10 05:37:31;;;;;;;4.15;2.65;;;;;;;10.70;100.00;100723.78;5043689;28;20056;-54
2022/09/10 05:39:56;;;;;;;2.13;1.98;;;;;;;10.62;100.00;100731.84;5029392;28;20118;-50
2022/09/10 05:42:22;;;;;;;2.08;1.98;;;;;;;10.52;100.00;100734.78;5038389;28;20155;-48
2022/09/10 05:44:47;;;;;;;4.85;2.55;;;;;;;10.50;100.00;100734.13;5035501;28;20037;-52
2022/09/10 05:47:12;;;;;;;5.25;2.78;;;;;;;10.51;100.00;100738.44;5039198;28;20477;-49
2022/09/10 05:49:38;;;;;;;3.88;3.58;;;;;;;10.57;100.00;100737.72;5031261;28;20025;-49
2022/09/10 05:52:03;;;;;;;7.20;3.67;;;;;;;10.65;100.00;100755.34;5032072;28;20032;-51
2022/09/10 05:54:28;;;;;;;5.63;4.72;;;;;;;10.89;100.00;100754.19;5041657;28;20034;-49
2022/09/10 05:56:54;;;;;;;6.40;3.83;;;;;;;10.87;100.00;100758.91;5040061;28;20397;-51
2022/09/10 05:59:19;;;;;;;9.65;6.60;;;;;;;10.95;100.00;100764.09;5031047;28;20107;-52
2022/09/10 06:01:45;;;;;;;14.25;7.38;;;;;;;11.05;100.00;100766.44;5035545;28;20538;-52
2022/09/10 06:04:10;;;;;;;10.05;7.18;;;;;;;11.23;100.00;100773.97;5042781;28;20024;-50
2022/09/10 06:06:36;;;;;;;6.88;5.47;;;;;;;11.39;100.00;100775.59;5034636;28;20121;-53
2022/09/10 06:09:02;;;;;;;7.07;6.03;;;;;;;11.54;100.00;100784.31;5036192;28;20120;-47
2022/09/10 06:11:27;;;;;;;5.72;5.07;;;;;;;11.69;100.00;100781.56;5035264;28;20064;-48
2022/09/10 06:13:53;;;;;;;7.88;5.43;;;;;;;11.68;100.00;100791.38;5035158;28;20044;-49
2022/09/10 06:16:18;;;;;;;7.22;6.10;;;;;;;11.65;100.00;100785.63;5036797;28;21288;-49
2022/09/10 06:18:44;;;;;;;8.95;7.97;;;;;;;11.84;100.00;100795.59;5038693;28;20025;-49
2022/09/10 06:21:15;;;;;;;9.23;7.35;;;;;;;11.97;100.00;100798.38;5041339;28;20031;-50
2022/09/10 06:23:41;;;;;;;9.57;6.38;;;;;;;12.05;100.00;100802.75;5034502;28;20022;-52
2022/09/10 06:26:24;;;;;;;9.88;6.60;;;;;;;12.18;100.00;100807.34;5034948;28;20517;-53
2022/09/10 06:28:50;;;;;;;6.38;4.75;;;;;;;12.23;100.00;100803.06;5037645;28;20391;-52
2022/09/10 06:31:18;;;;;;;8.43;6.93;;;;;;;12.32;100.00;100801.09;5034704;28;20115;-50
2022/09/10 06:33:45;;;;;;;6.57;5.50;;;;;;;12.38;100.00;100808.31;5042164;28;20382;-51
2022/09/10 06:36:11;;;;;;;6.43;4.28;;;;;;;12.51;100.00;100823.53;5040832;28;20596;-48
2022/09/10 06:38:36;;;;;;;6.55;4.85;;;;;;;12.59;100.00;100819.88;5037085;28;20027;-50
2022/09/10 06:41:05;;;;;;;7.93;5.13;;;;;;;12.62;100.00;100822.16;5032920;28;20335;-51
2022/09/10 06:43:35;;;;;;;8.52;4.22;;;;;;;12.70;100.00;100822.00;5026476;28;20465;-48
2022/09/10 06:46:01;;;;;;;7.93;5.40;;;;;;;12.66;100.00;100834.88;5032857;28;20024;-48
2022/09/10 06:48:27;;;;;;;7.65;4.03;;;;;;;12.64;100.00;100839.56;5034962;28;20067;-50
2022/09/10 06:50:58;;;;;;;5.00;4.43;;;;;;;12.64;100.00;100838.75;5031441;28;20045;-48
2022/09/10 06:53:26;;;;;;;5.25;4.53;;;;;;;12.66;100.00;100844.69;5027178;28;20470;-51
2022/09/10 06:55:52;;;;;;;8.38;3.33;;;;;;;12.67;100.00;100841.00;5033867;28;20029;-48
2022/09/10 06:58:19;;;;;;;4.25;2.95;;;;;;;12.68;100.00;100845.31;5037893;28;20029;-52
2022/09/10 07:00:48;;;;;;;4.40;3.95;;;;;;;12.66;100.00;100861.47;5032868;28;20461;-48
2022/09/10 07:03:15;;;;;;;13.90;5.05;;;;;;;12.69;100.00;100857.59;5032134;28;20367;-51
2022/09/10 07:05:41;;;;;;;5.30;4.80;;;;;;;12.74;100.00;100868.47;5033072;28;20018;-48
2022/09/10 07:08:07;;;;;;;10.38;4.47;;;;;;;12.76;100.00;100871.75;5030766;28;20032;-48
2022/09/10 07:10:32;;;;;;;5.15;3.67;;;;;;;12.82;100.00;100872.81;5033624;28;20286;-50
2022/09/10 07:13:00;;;;;;;5.82;3.33;;;;;;;12.85;100.00;100878.56;5029911;28;20061;-52
2022/09/10 07:15:26;;;;;;;6.00;4.15;;;;;;;12.91;100.00;100882.31;5031087;28;20036;-50
2022/09/10 07:17:52;;;;;;;4.85;3.33;;;;;;;12.95;100.00;100877.41;5037181;28;20021;-49
2022/09/10 07:20:17;;;;;;;11.07;4.50;;;;;;;13.01;100.00;100877.44;5034294;28;20036;-49
2022/09/10 07:22:43;;;;;;;12.35;6.18;;;;;;;13.10;100.00;100886.06;5033564;28;21075;-52
2022/09/10 07:25:08;;;;;;;6.47;3.88;;;;;;;13.14;100.00;100887.34;5034058;28;20091;-48
2022/09/10 07:27:34;;;;;;;4.50;4.00;;;;;;;13.19;100.00;100897.38;5029482;28;20415;-53
2022/09/10 07:29:59;;;;;;;5.25;4.28;;;;;;;13.17;100.00;100894.91;5032279;28;20111;-54
2022/09/10 07:32:24;;;;;;;6.40;4.47;;;;;;;13.22;100.00;100908.47;5038122;28;20107;-51
2022/09/10 07:34:51;;;;;;;17.08;4.78;;;;;;;13.26;100.00;100912.38;5031325;28;20022;-50
2022/09/10 07:37:16;;;;;;;7.07;4.22;;;;;;;13.30;100.00;100918.97;5032473;28;20482;-48
2022/09/10 07:39:42;;;;;;;12.52;4.88;;;;;;;13.33;100.00;100906.28;5036194;28;20083;-50
2022/09/10 07:42:08;;;;;;;9.18;4.07;;;;;;;13.38;100.00;100906.50;5037291;28;20682;-53
2022/09/10 07:44:33;;;;;;;12.32;4.57;;;;;;;13.40;100.00;100913.28;5035843;28;20028;-48
2022/09/10 07:47:00;;;;;;;7.03;4.75;;;;;;;13.44;100.00;100913.69;5040319;28;20033;-50
2022/09/10 07:49:26;;;;;;;10.45;6.55;;;;;;;13.52;100.00;100917.00;5027717;28;20049;-51
2022/09/10 07:51:53;;;;;;;7.40;4.53;;;;;;;13.56;100.00;100919.28;5032409;28;20060;-49
2022/09/10 07:54:18;;;;;;;6.38;5.32;;;;;;;13.64;100.00;100914.59;5038078;28;20453;-47
2022/09/10 07:56:44;;;;;;;7.15;5.28;;;;;;;13.64;100.00;100924.44;5040072;28;20086;-47
2022/09/10 07:59:10;;;;;;;8.48;4.88;;;;;;;13.73;100.00;100918.72;5032828;28;20029;-50
2022/09/10 08:01:36;;;;;;;6.28;3.70;;;;;;;13.75;100.00;100916.66;5040452;28;20029;-48
2022/09/10 08:04:02;;;;;;;12.82;5.40;;;;;;;13.78;100.00;100920.75;5037354;28;20111;-49
2022/09/10 08:06:27;;;;;;;8.45;4.35;;;;;;;13.81;100.00;100912.38;5030383;28;20063;-51
2022/09/10 08:08:53;;;;;;;8.45;4.07;;;;;;;13.80;100.00;100921.38;5032996;28;20033;-52
2022/09/10 08:11:20;;;;;;;9.30;3.72;;;;;;;13.77;100.00;100923.66;5040833;28;20038;-48
2022/09/10 08:13:50;;;;;;;4.22;3.72;;;;;;;13.78;100.00;100926.09;5033432;28;20111;-52
2022/09/10 08:16:21;;;;;;;8.20;4.10;;;;;;;13.85;100.00;100939.44;5040103;28;20562;-48
2022/09/10 08:18:48;;;;;;;7.45;4.82;;;;;;;13.85;100.00;100942.94;5039364;28;20030;-49
2022/09/10 08:21:15;;;;;;;7.75;4.00;;;;;;;13.87;100.00;100938.22;5040738;28;20063;-49
2022/09/10 08:23:42;;;;;;;8.32;4.85;;;;;;;13.94;100.00;100941.72;5043892;28;20443;-50
2022/09/10 08:26:08;;;;;;;8.57;4.38;;;;;;;14.04;100.00;100940.50;5038333;28;20033;-48
2022/09/10 08:28:34;;;;;;;6.45;5.68;;;;;;;14.13;100.00;100940.13;5035916;28;20091;-54
2022/09/10 08:31:08;;;;;;;3.67;3.30;;;;;;;14.20;100.00;100948.13;5039026;28;20399;-49
2022/09/10 08:33:35;;;;;;;4.57;3.88;;;;;;;14.28;100.00;100955.13;5030097;28;20389;-50
2022/09/10 08:36:01;;;;;;;5.70;3.95;;;;;;;14.27;100.00;100958.78;5045012;28;20139;-49
2022/09/10 08:38:32;;;;;;;10.10;4.22;;;;;;;14.21;100.00;100946.28;5043966;28;20438;-48
2022/09/10 08:40:59;;;;;;;4.77;3.17;;;;;;;14.17;100.00;100952.03;5044570;28;20561;-48
2022/09/10 08:43:52;;;;;;;3.80;2.70;;;;;;;14.28;100.00;100957.78;5048574;28;20033;-55
2022/09/10 08:46:22;;;;;;;5.45;3.45;;;;;;;14.43;100.00;100954.91;5033020;28;20026;-51
2022/09/10 08:49:11;;;;;;;9.70;3.37;;;;;;;14.53;100.00;100958.88;5035706;28;20510;-52
2022/09/10 08:51:43;;;;;;;8.32;3.75;;;;;;;14.73;100.00;100955.34;5039676;28;20032;-55
2022/09/10 08:54:24;;;;;;;6.68;3.20;;;;;;;14.95;100.00;100962.09;5040960;28;20033;-52
2022/09/10 08:56:52;;;;;;;3.40;2.35;;;;;;;15.11;100.00;100968.84;5037010;28;20017;-49
2022/09/10 08:59:25;;;;;;;16.33;4.22;;;;;;;15.00;100.00;100964.97;5021533;28;20032;-55
2022/09/10 09:01:58;;;;;;;8.05;3.40;;;;;;;14.94;100.00;100956.97;5041932;28;20025;-50
2022/09/10 09:04:43;;;;;;;10.65;4.45;;;;;;;14.85;100.00;100964.38;5041069;28;20486;-49
2022/09/10 09:07:14;;;;;;;5.07;2.40;;;;;;;14.80;100.00;100964.19;5041125;28;20442;-55
2022/09/10 09:09:40;;;;;;;6.07;2.72;;;;;;;14.81;100.00;100968.47;5043250;28;20025;-55
2022/09/10 09:12:24;;;;;;;15.98;3.40;;;;;;;14.79;100.00;100965.19;5039078;28;20066;-56
2022/09/10 09:14:55;;;;;;;9.25;2.67;;;;;;;14.84;100.00;100968.06;5035348;28;20223;-54
2022/09/10 09:17:36;;;;;;;9.95;2.55;;;;;;;14.86;100.00;100970.53;5038013;28;20065;-54
2022/09/10 09:20:17;;;;;;;2.75;1.95;;;;;;;14.87;100.00;100970.34;5038745;28;20090;-52
2022/09/10 09:22:51;;;;;;;3.33;2.55;;;;;;;15.00;100.00;100972.16;5043812;28;20064;-55
2022/09/10 09:25:42;;;;;;;4.32;1.80;;;;;;;15.05;100.00;100969.69;5038620;28;20061;-53
2022/09/10 09:28:19;;;;;;;4.53;1.25;;;;;;;15.18;100.00;100971.50;5045980;28;20025;-55
2022/09/10 09:30:48;;;;;;;6.53;2.08;;;;;;;15.26;100.00;100972.09;5040996;28;20427;-52
2022/09/10 09:33:17;;;;;;;3.33;1.98;;;;;;;15.24;100.00;100979.50;5043631;28;20077;-51
2022/09/10 09:35:51;;;;;;;3.90;2.53;;;;;;;15.16;100.00;100973.56;5045420;28;20508;-54
2022/09/10 09:38:23;;;;;;;2.58;1.70;;;;;;;15.29;100.00;100976.19;5048881;28;20037;-54
2022/09/10 09:40:53;;;;;;;3.65;1.60;;;;;;;15.46;100.00;100972.03;5045807;28;20056;-55
2022/09/10 09:43:30;;;;;;;6.03;3.05;;;;;;;15.67;100.00;100972.78;5042367;28;20445;-53
2022/09/10 09:45:56;;;;;;;3.28;2.10;;;;;;;15.65;100.00;100978.34;5039649;28;20037;-50
2022/09/10 09:48:23;;;;;;;6.05;2.67;;;;;;;15.45;100.00;100981.06;5040769;28;20543;-53
2022/09/10 09:50:54;;;;;;;4.70;2.10;;;;;;;15.46;100.00;100979.22;5040463;28;20029;-56
2022/09/10 09:53:27;;;;;;;5.07;1.83;;;;;;;15.35;100.00;100982.56;5040497;28;20025;-53
2022/09/10 09:56:06;;;;;;;5.85;2.13;;;;;;;15.33;100.00;100984.59;5036978;28;20030;-55
2022/09/10 09:58:36;;;;;;;3.33;2.28;;;;;;;15.27;100.00;100981.75;5035154;28;20034;-56
2022/09/10 10:01:08;;;;;;;2.45;2.13;;;;;;;15.17;100.00;100978.69;5033212;28;20025;-54
2022/09/10 10:03:49;;;;;;;4.07;1.35;;;;;;;15.21;100.00;100973.75;5025400;28;20026;-52
2022/09/10 10:06:15;;;;;;;2.33;1.27;;;;;;;15.37;100.00;100973.28;5022425;28;20049;-52
2022/09/10 10:08:57;;;;;;;3.67;1.77;;;;;;;15.57;100.00;100964.41;5032981;28;20025;-51
2022/09/10 10:11:46;;;;;;;5.18;1.90;;;;;;;15.77;100.00;100972.34;5037518;28;20111;-50
2022/09/10 10:14:29;;;;;;;3.47;1.60;;;;;;;16.02;100.00;100959.84;5030710;28;20642;-53
2022/09/10 10:16:55;;;;;;;5.22;1.77;;;;;;;16.51;100.00;100952.09;5033080;28;20038;-56
2022/09/10 10:19:37;;;;;;;3.13;1.42;;;;;;;16.94;100.00;100954.84;5033406;28;20187;-51
2022/09/10 10:22:15;;;;;;;1.40;1.30;;;;;;;17.36;100.00;100944.25;5023744;28;20509;-56
2022/09/10 10:24:42;;;;;;;2.83;0.82;;;;;;;17.63;100.00;100922.47;5032822;28;20116;-53
2022/09/10 10:27:16;;;;;;;3.58;0.98;;;;;;;17.76;100.00;100906.22;5030655;28;20509;-55
2022/09/10 10:29:51;;;;;;;1.95;0.85;;;;;;;17.81;100.00;100892.16;5027699;28;20020;-55
2022/09/10 10:32:19;;;;;;;2.67;1.10;;;;;;;17.70;100.00;100892.91;5039025;28;20486;-51
2022/09/10 10:35:07;;;;;;;1.20;1.10;;;;;;;17.71;100.00;100905.25;5027339;28;20025;-53
2022/09/10 10:37:44;;;;;;;2.22;0.98;;;;;;;17.93;100.00;100889.50;5030100;28;20026;-57
2022/09/10 10:40:32;;;;;;;1.13;0.60;;;;;;;17.99;100.00;100889.41;5025763;28;20021;-56
2022/09/10 10:43:19;;;;;;;3.33;0.52;;;;;;;17.91;100.00;100881.66;5017152;28;20307;-55
2022/09/10 10:45:57;;;;;;;1.13;1.00;;;;;;;17.50;100.00;100899.34;5021680;28;20037;-53
2022/09/10 10:48:28;;;;;;;4.05;1.10;;;;;;;17.40;100.00;100894.53;5022189;28;20037;-56
2022/09/10 10:51:10;;;;;;;2.90;1.40;;;;;;;17.28;100.00;100899.00;5020963;28;20029;-55
2022/09/10 10:53:52;;;;;;;4.97;0.47;;;;;;;17.15;100.00;100904.53;5017941;28;20055;-57
2022/09/10 10:56:41;;;;;;;1.42;1.33;;;;;;;17.27;100.00;100902.75;5028681;28;21642;-55
2022/09/10 10:59:29;;;;;;;2.90;1.25;;;;;;;17.55;100.00;100883.41;5025789;28;20030;-55
2022/09/10 11:02:13;;;;;;;2.17;1.45;;;;;;;17.69;100.00;100880.56;5036784;28;20178;-56
2022/09/10 11:04:49;;;;;;;5.85;0.88;;;;;;;17.80;100.00;100885.16;5025311;28;20029;-51
2022/09/10 11:07:22;;;;;;;2.15;0.68;;;;;;;18.13;100.00;100867.72;5024254;28;20048;-56
2022/09/10 11:09:57;;;;;;;3.55;0.68;;;;;;;18.65;100.00;100873.22;5035330;28;20034;-51
2022/09/10 11:12:33;;;;;;;2.58;0.40;;;;;;;18.78;100.00;100867.63;5034860;28;20148;-55
2022/09/10 11:15:12;;;;;;;1.20;0.30;;;;;;;19.03;100.00;100866.53;5038187;28;20054;-57
2022/09/10 11:17:47;;;;;;;3.00;0.40;;;;;;;18.84;100.00;100873.94;5037926;28;20029;-57
2022/09/10 11:20:18;;;;;;;1.65;0.30;;;;;;;18.56;100.00;100883.53;5033926;28;20367;-56
2022/09/10 11:22:52;;;;;;;3.65;0.75;;;;;;;18.49;100.00;100888.19;5035685;28;20121;-57
2022/09/10 11:25:26;;;;;;;2.13;0.40;;;;;;;18.25;100.00;100876.59;5030919;28;20040;-55
2022/09/10 11:28:18;;;;;;;3.83;1.13;;;;;;;18.23;100.00;100889.44;5037488;28;20038;-51
2022/09/10 11:30:45;;;;;;;;;;;;;;;18.18;100.00;100874.03;5037152;28;20393;-52
2022/09/10 11:33:46;;;;;;;2.83;0.63;;;;;;;18.30;100.00;100885.59;5034556;28;20282;-53